sensor_id;sensor_type;location;lat;lon;timestamp;temperature;humidity
62476;DHT22;50739;45.670;11.936;2023-04-03T00:03:01;13.74;76.61
62476;DHT22;50739;45.670;11.936;2023-04-03T00:08:04;13.53;77.29
62476;DHT22;50739;45.670;11.936;2023-04-03T00:13:08;13.53;78.17
62476;DHT22;50739;45.670;11.936;2023-04-03T00:18:10;13.60;79.40
62476;DHT22;50739;45.670;11.936;2023-04-03T00:23:14;13.55;78.94
62476;DHT22;50739;45.670;11.936;2023-04-03T00:28:16;13.42;79.80
62476;DHT22;50739;45.670;11.936;2023-04-03T00:33:19;13.51;79.22
62476;DHT22;50739;45.670;11.936;2023-04-03T00:38:23;13.51;79.35
62476;DHT22;50739;45.670;11.936;2023-04-03T00:43:25;13.39;78.97
62476;DHT22;50739;45.670;11.936;2023-04-03T00:48:30;13.03;79.09
62476;DHT22;50739;45.670;11.936;2023-04-03T00:53:38;13.13;78.58
62476;DHT22;50739;45.670;11.936;2023-04-03T00:58:45;13.09;78.46
62476;DHT22;50739;45.670;11.936;2023-04-03T01:03:48;13.07;77.43
62476;DHT22;50739;45.670;11.936;2023-04-03T01:08:52;13.02;76.73
62476;DHT22;50739;45.670;11.936;2023-04-03T01:13:54;13.07;76.40
62476;DHT22;50739;45.670;11.936;2023-04-03T01:18:56;12.82;77.09
62476;DHT22;50739;45.670;11.936;2023-04-03T01:24:08;12.78;76.42
62476;DHT22;50739;45.670;11.936;2023-04-03T01:29:13;12.77;76.03
62476;DHT22;50739;45.670;11.936;2023-04-03T01:34:17;12.69;76.62
62476;DHT22;50739;45.670;11.936;2023-04-03T01:39:19;12.64;77.46
62476;DHT22;50739;45.670;11.936;2023-04-03T01:44:21;12.52;77.58
62476;DHT22;50739;45.670;11.936;2023-04-03T01:49:24;12.29;78.06
62476;DHT22;50739;45.670;11.936;2023-04-03T01:54:26;12.13;78.33
62476;DHT22;50739;45.670;11.936;2023-04-03T01:59:28;12.02;78.31
62476;DHT22;50739;45.670;11.936;2023-04-03T02:04:31;12.09;78.11
62476;DHT22;50739;45.670;11.936;2023-04-03T02:09:33;11.97;77.95
62476;DHT22;50739;45.670;11.936;2023-04-03T02:14:35;11.85;77.83
62476;DHT22;50739;45.670;11.936;2023-04-03T02:19:38;11.76;78.13
62476;DHT22;50739;45.670;11.936;2023-04-03T02:24:40;11.74;77.94
62476;DHT22;50739;45.670;11.936;2023-04-03T02:29:42;11.71;77.56
62476;DHT22;50739;45.670;11.936;2023-04-03T02:34:45;11.71;77.38
62476;DHT22;50739;45.670;11.936;2023-04-03T02:39:47;11.62;77.41
62476;DHT22;50739;45.670;11.936;2023-04-03T02:44:49;11.62;77.48
62476;DHT22;50739;45.670;11.936;2023-04-03T02:49:52;11.65;77.26
62476;DHT22;50739;45.670;11.936;2023-04-03T02:54:54;11.69;76.81
62476;DHT22;50739;45.670;11.936;2023-04-03T02:59:56;11.65;77.58
62476;DHT22;50739;45.670;11.936;2023-04-03T03:04:59;11.62;76.99
62476;DHT22;50739;45.670;11.936;2023-04-03T03:10:01;11.55;77.11
62476;DHT22;50739;45.670;11.936;2023-04-03T03:15:04;11.52;77.42
62476;DHT22;50739;45.670;11.936;2023-04-03T03:20:08;11.58;76.91
62476;DHT22;50739;45.670;11.936;2023-04-03T03:25:10;11.52;77.25
62476;DHT22;50739;45.670;11.936;2023-04-03T03:30:12;11.50;77.55
62476;DHT22;50739;45.670;11.936;2023-04-03T03:35:15;11.50;77.81
62476;DHT22;50739;45.670;11.936;2023-04-03T03:40:17;11.58;77.56
62476;DHT22;50739;45.670;11.936;2023-04-03T03:45:19;11.72;77.27
62476;DHT22;50739;45.670;11.936;2023-04-03T03:50:22;11.68;77.72
62476;DHT22;50739;45.670;11.936;2023-04-03T03:55:24;11.55;78.28
62476;DHT22;50739;45.670;11.936;2023-04-03T04:00:26;11.38;78.84
62476;DHT22;50739;45.670;11.936;2023-04-03T04:05:29;11.34;78.99
62476;DHT22;50739;45.670;11.936;2023-04-03T04:10:31;11.21;79.41
62476;DHT22;50739;45.670;11.936;2023-04-03T04:15:33;11.02;79.87
62476;DHT22;50739;45.670;11.936;2023-04-03T04:20:37;10.79;80.91
62476;DHT22;50739;45.670;11.936;2023-04-03T04:25:38;10.82;80.93
62476;DHT22;50739;45.670;11.936;2023-04-03T04:30:40;10.80;80.27
62476;DHT22;50739;45.670;11.936;2023-04-03T04:35:44;10.73;80.53
62476;DHT22;50739;45.670;11.936;2023-04-03T04:40:47;10.62;80.81
62476;DHT22;50739;45.670;11.936;2023-04-03T04:45:48;10.65;80.55
62476;DHT22;50739;45.670;11.936;2023-04-03T04:50:52;10.66;80.20
62476;DHT22;50739;45.670;11.936;2023-04-03T04:55:53;10.68;78.84
62476;DHT22;50739;45.670;11.936;2023-04-03T05:00:58;10.65;78.73
62476;DHT22;50739;45.670;11.936;2023-04-03T05:06:03;10.34;80.68
62476;DHT22;50739;45.670;11.936;2023-04-03T05:11:05;10.38;80.67
62476;DHT22;50739;45.670;11.936;2023-04-03T05:16:07;10.51;79.99
62476;DHT22;50739;45.670;11.936;2023-04-03T05:21:10;10.30;80.32
62476;DHT22;50739;45.670;11.936;2023-04-03T05:26:12;10.47;79.71
62476;DHT22;50739;45.670;11.936;2023-04-03T05:31:13;10.58;79.38
62476;DHT22;50739;45.670;11.936;2023-04-03T05:36:17;10.61;79.32
62476;DHT22;50739;45.670;11.936;2023-04-03T05:41:19;10.62;79.29
62476;DHT22;50739;45.670;11.936;2023-04-03T05:46:22;10.64;78.69
62476;DHT22;50739;45.670;11.936;2023-04-03T05:51:28;10.75;78.19
62476;DHT22;50739;45.670;11.936;2023-04-03T05:56:31;10.92;77.67
62476;DHT22;50739;45.670;11.936;2023-04-03T06:01:33;11.11;76.93
62476;DHT22;50739;45.670;11.936;2023-04-03T06:06:48;11.34;76.40
62476;DHT22;50739;45.670;11.936;2023-04-03T06:11:52;11.58;75.76
62476;DHT22;50739;45.670;11.936;2023-04-03T06:16:54;11.75;75.01
62476;DHT22;50739;45.670;11.936;2023-04-03T06:21:57;11.79;75.13
62476;DHT22;50739;45.670;11.936;2023-04-03T06:27:00;11.95;74.95
62476;DHT22;50739;45.670;11.936;2023-04-03T06:32:02;12.10;74.18
62476;DHT22;50739;45.670;11.936;2023-04-03T06:37:05;12.22;72.93
62476;DHT22;50739;45.670;11.936;2023-04-03T06:42:07;12.36;72.82
62476;DHT22;50739;45.670;11.936;2023-04-03T06:47:10;12.45;71.59
62476;DHT22;50739;45.670;11.936;2023-04-03T06:52:14;12.54;70.25
62476;DHT22;50739;45.670;11.936;2023-04-03T06:57:16;12.65;70.23
62476;DHT22;50739;45.670;11.936;2023-04-03T07:02:19;12.65;70.69
62476;DHT22;50739;45.670;11.936;2023-04-03T07:07:22;12.79;70.39
62476;DHT22;50739;45.670;11.936;2023-04-03T07:12:24;12.72;70.79
62476;DHT22;50739;45.670;11.936;2023-04-03T07:17:26;12.78;69.78
62476;DHT22;50739;45.670;11.936;2023-04-03T07:22:30;12.89;68.21
62476;DHT22;50739;45.670;11.936;2023-04-03T07:27:32;12.79;69.91
62476;DHT22;50739;45.670;11.936;2023-04-03T07:32:33;12.75;68.98
62476;DHT22;50739;45.670;11.936;2023-04-03T07:37:37;12.75;68.84
62476;DHT22;50739;45.670;11.936;2023-04-03T07:42:38;12.84;68.44
62476;DHT22;50739;45.670;11.936;2023-04-03T07:47:40;12.78;67.75
62476;DHT22;50739;45.670;11.936;2023-04-03T07:52:44;12.96;67.46
62476;DHT22;50739;45.670;11.936;2023-04-03T07:57:45;12.96;68.04
62476;DHT22;50739;45.670;11.936;2023-04-03T08:02:47;13.19;66.60
62476;DHT22;50739;45.670;11.936;2023-04-03T08:07:53;13.13;66.86
62476;DHT22;50739;45.670;11.936;2023-04-03T08:12:55;13.10;66.82
62476;DHT22;50739;45.670;11.936;2023-04-03T08:17:57;13.17;66.15
62476;DHT22;50739;45.670;11.936;2023-04-03T08:23:00;13.20;64.90
62476;DHT22;50739;45.670;11.936;2023-04-03T08:28:02;13.19;65.98
62476;DHT22;50739;45.670;11.936;2023-04-03T08:33:04;13.33;64.56
62476;DHT22;50739;45.670;11.936;2023-04-03T08:38:08;13.44;61.39
62476;DHT22;50739;45.670;11.936;2023-04-03T08:43:25;13.44;60.62
62476;DHT22;50739;45.670;11.936;2023-04-03T08:48:31;13.57;60.69
62476;DHT22;50739;45.670;11.936;2023-04-03T08:53:37;13.82;59.39
62476;DHT22;50739;45.670;11.936;2023-04-03T08:58:46;13.95;59.76
62476;DHT22;50739;45.670;11.936;2023-04-03T09:03:49;13.95;59.66
62476;DHT22;50739;45.670;11.936;2023-04-03T09:09:00;13.91;60.37
62476;DHT22;50739;45.670;11.936;2023-04-03T09:14:09;14.08;57.93
62476;DHT22;50739;45.670;11.936;2023-04-03T09:19:17;14.22;57.82
62476;DHT22;50739;45.670;11.936;2023-04-03T09:24:25;14.19;56.87
62476;DHT22;50739;45.670;11.936;2023-04-03T09:29:28;14.33;57.58
62476;DHT22;50739;45.670;11.936;2023-04-03T09:34:32;14.41;56.30
62476;DHT22;50739;45.670;11.936;2023-04-03T09:39:51;14.46;55.02
62476;DHT22;50739;45.670;11.936;2023-04-03T09:44:55;14.53;55.17
62476;DHT22;50739;45.670;11.936;2023-04-03T09:50:15;14.60;55.87
62476;DHT22;50739;45.670;11.936;2023-04-03T09:55:23;14.59;55.77
62476;DHT22;50739;45.670;11.936;2023-04-03T10:00:31;14.43;55.37
62476;DHT22;50739;45.670;11.936;2023-04-03T10:05:36;14.59;55.06
62476;DHT22;50739;45.670;11.936;2023-04-03T10:10:41;14.73;54.54
62476;DHT22;50739;45.670;11.936;2023-04-03T10:15:45;14.60;54.69
62476;DHT22;50739;45.670;11.936;2023-04-03T10:20:49;14.51;55.33
62476;DHT22;50739;45.670;11.936;2023-04-03T10:26:02;14.60;54.55
62476;DHT22;50739;45.670;11.936;2023-04-03T10:31:14;14.56;54.55
62476;DHT22;50739;45.670;11.936;2023-04-03T10:36:26;14.39;55.92
62476;DHT22;50739;45.670;11.936;2023-04-03T10:41:39;14.46;55.81
62476;DHT22;50739;45.670;11.936;2023-04-03T10:46:47;14.37;54.78
62476;DHT22;50739;45.670;11.936;2023-04-03T10:51:55;14.57;56.28
62476;DHT22;50739;45.670;11.936;2023-04-03T10:57:03;14.88;55.64
62476;DHT22;50739;45.670;11.936;2023-04-03T11:02:14;14.71;54.53
62476;DHT22;50739;45.670;11.936;2023-04-03T11:07:20;14.91;55.41
62476;DHT22;50739;45.670;11.936;2023-04-03T11:12:28;14.95;55.01
62476;DHT22;50739;45.670;11.936;2023-04-03T11:17:39;15.25;54.98
62476;DHT22;50739;45.670;11.936;2023-04-03T11:22:48;15.25;53.54
62476;DHT22;50739;45.670;11.936;2023-04-03T11:27:56;15.25;55.46
62476;DHT22;50739;45.670;11.936;2023-04-03T11:33:21;15.39;54.66
62476;DHT22;50739;45.670;11.936;2023-04-03T11:38:28;15.28;54.47
62476;DHT22;50739;45.670;11.936;2023-04-03T11:43:33;15.43;55.03
62476;DHT22;50739;45.670;11.936;2023-04-03T11:48:45;15.56;53.67
62476;DHT22;50739;45.670;11.936;2023-04-03T11:53:47;15.44;54.57
62476;DHT22;50739;45.670;11.936;2023-04-03T11:59:22;15.64;54.11
62476;DHT22;50739;45.670;11.936;2023-04-03T12:04:26;15.84;52.64
62476;DHT22;50739;45.670;11.936;2023-04-03T12:09:56;15.83;53.67
62476;DHT22;50739;45.670;11.936;2023-04-03T12:15:22;16.00;54.16
62476;DHT22;50739;45.670;11.936;2023-04-03T12:20:52;16.02;53.66
62476;DHT22;50739;45.670;11.936;2023-04-03T12:26:01;16.39;52.40
62476;DHT22;50739;45.670;11.936;2023-04-03T12:31:04;16.36;51.82
62476;DHT22;50739;45.670;11.936;2023-04-03T12:36:10;16.88;52.90
62476;DHT22;50739;45.670;11.936;2023-04-03T12:41:19;17.50;51.15
62476;DHT22;50739;45.670;11.936;2023-04-03T12:46:26;17.80;49.92
62476;DHT22;50739;45.670;11.936;2023-04-03T12:51:38;17.89;49.58
62476;DHT22;50739;45.670;11.936;2023-04-03T12:56:41;18.25;48.32
62476;DHT22;50739;45.670;11.936;2023-04-03T13:01:53;18.53;48.05
62476;DHT22;50739;45.670;11.936;2023-04-03T13:06:55;18.66;44.86
62476;DHT22;50739;45.670;11.936;2023-04-03T13:11:59;19.17;45.55
62476;DHT22;50739;45.670;11.936;2023-04-03T13:17:11;19.76;45.16
62476;DHT22;50739;45.670;11.936;2023-04-03T13:22:25;19.93;45.62
62476;DHT22;50739;45.670;11.936;2023-04-03T13:27:30;19.98;44.03
62476;DHT22;50739;45.670;11.936;2023-04-03T13:32:33;19.31;44.91
62476;DHT22;50739;45.670;11.936;2023-04-03T13:37:35;19.21;45.21
62476;DHT22;50739;45.670;11.936;2023-04-03T13:42:39;19.45;43.52
62476;DHT22;50739;45.670;11.936;2023-04-03T13:47:44;19.20;44.33
62476;DHT22;50739;45.670;11.936;2023-04-03T13:52:48;19.08;42.55
62476;DHT22;50739;45.670;11.936;2023-04-03T13:57:57;19.85;42.51
62476;DHT22;50739;45.670;11.936;2023-04-03T14:03:00;20.65;40.75
62476;DHT22;50739;45.670;11.936;2023-04-03T14:08:02;20.10;40.27
62476;DHT22;50739;45.670;11.936;2023-04-03T14:13:04;19.87;42.39
62476;DHT22;50739;45.670;11.936;2023-04-03T14:18:10;20.00;41.04
62476;DHT22;50739;45.670;11.936;2023-04-03T14:23:13;18.63;41.37
62476;DHT22;50739;45.670;11.936;2023-04-03T14:28:17;18.58;43.27
62476;DHT22;50739;45.670;11.936;2023-04-03T14:33:21;18.99;42.15
62476;DHT22;50739;45.670;11.936;2023-04-03T14:38:25;18.00;41.87
62476;DHT22;50739;45.670;11.936;2023-04-03T14:43:28;17.91;44.43
62476;DHT22;50739;45.670;11.936;2023-04-03T14:48:31;18.31;42.22
62476;DHT22;50739;45.670;11.936;2023-04-03T14:53:33;19.07;41.31
62476;DHT22;50739;45.670;11.936;2023-04-03T14:58:35;19.61;39.78
62476;DHT22;50739;45.670;11.936;2023-04-03T15:03:38;19.31;39.86
62476;DHT22;50739;45.670;11.936;2023-04-03T15:08:41;19.25;39.87
62476;DHT22;50739;45.670;11.936;2023-04-03T15:13:43;19.61;38.74
62476;DHT22;50739;45.670;11.936;2023-04-03T15:18:48;18.49;40.04
62476;DHT22;50739;45.670;11.936;2023-04-03T15:23:50;19.52;38.42
62476;DHT22;50739;45.670;11.936;2023-04-03T15:28:52;19.07;39.11
62476;DHT22;50739;45.670;11.936;2023-04-03T15:33:55;19.28;38.83
62476;DHT22;50739;45.670;11.936;2023-04-03T15:38:57;19.30;38.52
62476;DHT22;50739;45.670;11.936;2023-04-03T15:43:59;19.48;39.29
62476;DHT22;50739;45.670;11.936;2023-04-03T15:49:02;18.35;39.83
62476;DHT22;50739;45.670;11.936;2023-04-03T15:54:04;18.84;38.89
62476;DHT22;50739;45.670;11.936;2023-04-03T15:59:06;18.90;37.85
62476;DHT22;50739;45.670;11.936;2023-04-03T16:04:09;19.36;37.63
62476;DHT22;50739;45.670;11.936;2023-04-03T16:09:11;18.20;39.42
62476;DHT22;50739;45.670;11.936;2023-04-03T16:14:13;17.36;40.94
62476;DHT22;50739;45.670;11.936;2023-04-03T16:19:17;16.80;40.70
62476;DHT22;50739;45.670;11.936;2023-04-03T16:24:19;16.48;42.01
62476;DHT22;50739;45.670;11.936;2023-04-03T16:29:21;16.33;43.14
62476;DHT22;50739;45.670;11.936;2023-04-03T16:34:24;16.16;42.33
62476;DHT22;50739;45.670;11.936;2023-04-03T16:39:26;15.76;43.41
62476;DHT22;50739;45.670;11.936;2023-04-03T16:44:28;15.67;43.32
62476;DHT22;50739;45.670;11.936;2023-04-03T16:49:31;15.61;43.62
62476;DHT22;50739;45.670;11.936;2023-04-03T16:54:34;15.40;44.56
62476;DHT22;50739;45.670;11.936;2023-04-03T16:59:36;15.29;44.29
62476;DHT22;50739;45.670;11.936;2023-04-03T17:04:39;15.15;44.48
62476;DHT22;50739;45.670;11.936;2023-04-03T17:09:41;15.01;44.43
62476;DHT22;50739;45.670;11.936;2023-04-03T17:14:43;14.89;45.24
62476;DHT22;50739;45.670;11.936;2023-04-03T17:19:47;14.87;45.27
62476;DHT22;50739;45.670;11.936;2023-04-03T17:24:49;14.75;46.04
62476;DHT22;50739;45.670;11.936;2023-04-03T17:29:51;14.70;45.81
62476;DHT22;50739;45.670;11.936;2023-04-03T17:34:54;14.53;46.59
62476;DHT22;50739;45.670;11.936;2023-04-03T17:39:56;14.54;46.50
62476;DHT22;50739;45.670;11.936;2023-04-03T17:44:58;14.46;47.50
62476;DHT22;50739;45.670;11.936;2023-04-03T17:50:02;14.27;47.21
62476;DHT22;50739;45.670;11.936;2023-04-03T17:55:04;14.22;47.83
62476;DHT22;50739;45.670;11.936;2023-04-03T18:00:07;14.04;47.44
62476;DHT22;50739;45.670;11.936;2023-04-03T18:05:11;14.13;47.43
62476;DHT22;50739;45.670;11.936;2023-04-03T18:10:13;14.10;47.92
62476;DHT22;50739;45.670;11.936;2023-04-03T18:15:15;14.05;47.49
62476;DHT22;50739;45.670;11.936;2023-04-03T18:20:19;14.04;47.24
62476;DHT22;50739;45.670;11.936;2023-04-03T18:25:21;14.01;47.20
62476;DHT22;50739;45.670;11.936;2023-04-03T18:30:23;14.05;47.97
62476;DHT22;50739;45.670;11.936;2023-04-03T18:35:27;14.16;46.55
62476;DHT22;50739;45.670;11.936;2023-04-03T18:40:30;14.15;45.97
62476;DHT22;50739;45.670;11.936;2023-04-03T18:45:32;14.10;46.12
62476;DHT22;50739;45.670;11.936;2023-04-03T18:50:35;13.89;46.52
62476;DHT22;50739;45.670;11.936;2023-04-03T18:55:37;13.92;47.17
62476;DHT22;50739;45.670;11.936;2023-04-03T19:00:40;13.79;47.39
62476;DHT22;50739;45.670;11.936;2023-04-03T19:05:43;13.78;47.52
62476;DHT22;50739;45.670;11.936;2023-04-03T19:10:45;13.86;46.69
62476;DHT22;50739;45.670;11.936;2023-04-03T19:15:47;13.82;47.57
62476;DHT22;50739;45.670;11.936;2023-04-03T19:20:54;13.71;48.22
62476;DHT22;50739;45.670;11.936;2023-04-03T19:25:57;13.68;48.96
62476;DHT22;50739;45.670;11.936;2023-04-03T19:31:00;13.48;49.04
62476;DHT22;50739;45.670;11.936;2023-04-03T19:36:05;13.65;48.91
62476;DHT22;50739;45.670;11.936;2023-04-03T19:41:10;13.53;49.71
62476;DHT22;50739;45.670;11.936;2023-04-03T19:46:12;13.57;49.62
62476;DHT22;50739;45.670;11.936;2023-04-03T19:51:16;13.48;49.97
62476;DHT22;50739;45.670;11.936;2023-04-03T19:56:18;13.37;50.38
62476;DHT22;50739;45.670;11.936;2023-04-03T20:01:21;13.39;50.66
62476;DHT22;50739;45.670;11.936;2023-04-03T20:06:25;13.46;50.38
62476;DHT22;50739;45.670;11.936;2023-04-03T20:11:26;13.32;51.13
62476;DHT22;50739;45.670;11.936;2023-04-03T20:16:28;13.16;51.62
62476;DHT22;50739;45.670;11.936;2023-04-03T20:21:33;13.03;52.10
62476;DHT22;50739;45.670;11.936;2023-04-03T20:26:34;12.81;52.53
62476;DHT22;50739;45.670;11.936;2023-04-03T20:31:41;12.84;51.62
62476;DHT22;50739;45.670;11.936;2023-04-03T20:36:44;12.71;51.33
62476;DHT22;50739;45.670;11.936;2023-04-03T20:41:47;12.72;52.43
62476;DHT22;50739;45.670;11.936;2023-04-03T20:46:49;12.47;52.73
62476;DHT22;50739;45.670;11.936;2023-04-03T20:51:52;12.40;51.77
62476;DHT22;50739;45.670;11.936;2023-04-03T20:56:54;12.38;51.81
62476;DHT22;50739;45.670;11.936;2023-04-03T21:01:56;12.12;52.29
62476;DHT22;50739;45.670;11.936;2023-04-03T21:23:56;11.92;51.95
62476;DHT22;50739;45.670;11.936;2023-04-03T21:28:58;11.83;52.18
62476;DHT22;50739;45.670;11.936;2023-04-03T21:34:01;11.81;52.02
62476;DHT22;50739;45.670;11.936;2023-04-03T21:39:03;11.85;50.56
62476;DHT22;50739;45.670;11.936;2023-04-03T21:44:04;11.61;50.47
62476;DHT22;50739;45.670;11.936;2023-04-03T21:49:08;11.51;50.94
62476;DHT22;50739;45.670;11.936;2023-04-03T21:54:10;11.51;49.73
62476;DHT22;50739;45.670;11.936;2023-04-03T21:59:12;11.50;49.33
62476;DHT22;50739;45.670;11.936;2023-04-03T22:04:15;11.31;48.19
62476;DHT22;50739;45.670;11.936;2023-04-03T22:09:17;11.19;47.61
62476;DHT22;50739;45.670;11.936;2023-04-03T22:14:19;11.11;47.54
62476;DHT22;50739;45.670;11.936;2023-04-03T22:19:23;10.93;47.55
62476;DHT22;50739;45.670;11.936;2023-04-03T22:24:24;10.79;47.96
62476;DHT22;50739;45.670;11.936;2023-04-03T22:29:26;10.84;47.34
62476;DHT22;50739;45.670;11.936;2023-04-03T22:34:30;10.84;48.06
62476;DHT22;50739;45.670;11.936;2023-04-03T22:39:32;10.80;47.62
62476;DHT22;50739;45.670;11.936;2023-04-03T22:44:34;10.54;48.06
62476;DHT22;50739;45.670;11.936;2023-04-03T22:49:37;10.51;47.38
62476;DHT22;50739;45.670;11.936;2023-04-03T22:54:39;10.48;48.31
62476;DHT22;50739;45.670;11.936;2023-04-03T22:59:41;10.20;48.55
62476;DHT22;50739;45.670;11.936;2023-04-03T23:04:44;10.11;49.19
62476;DHT22;50739;45.670;11.936;2023-04-03T23:09:47;9.85;49.79
62476;DHT22;50739;45.670;11.936;2023-04-03T23:14:48;9.86;49.25
62476;DHT22;50739;45.670;11.936;2023-04-03T23:19:52;10.13;49.28
62476;DHT22;50739;45.670;11.936;2023-04-03T23:24:53;9.75;49.65
62476;DHT22;50739;45.670;11.936;2023-04-03T23:29:55;9.76;50.49
62476;DHT22;50739;45.670;11.936;2023-04-03T23:34:58;9.78;49.89
62476;DHT22;50739;45.670;11.936;2023-04-03T23:40:00;9.75;49.34
62476;DHT22;50739;45.670;11.936;2023-04-03T23:45:03;9.68;47.82
62476;DHT22;50739;45.670;11.936;2023-04-03T23:50:07;9.62;48.21
62476;DHT22;50739;45.670;11.936;2023-04-03T23:55:09;9.63;46.53
